createdAt,value
2018-11-20T00:02:51.799Z,18.80
2018-11-20T00:08:22.240Z,20.57
2018-11-20T00:11:05.586Z,18.93
2018-11-20T00:13:56.928Z,18.00
2018-11-20T00:16:35.097Z,19.37
2018-11-20T00:21:55.647Z,22.43
2018-11-20T00:24:23.267Z,21.20
2018-11-20T00:29:34.977Z,20.23
2018-11-20T00:34:36.067Z,20.83
2018-11-20T00:42:31.133Z,21.37
2018-11-20T00:44:59.686Z,19.87
2018-11-20T00:50:19.922Z,21.23
2018-11-20T00:56:07.368Z,20.00
2018-11-20T00:58:54.190Z,21.53
2018-11-20T01:03:50.502Z,24.30
2018-11-20T01:08:46.393Z,23.00
2018-11-20T01:14:13.510Z,23.30
2018-11-20T01:16:58.250Z,24.00
2018-11-20T01:19:28.899Z,22.70
2018-11-20T01:22:29.107Z,25.23
2018-11-20T01:25:15.312Z,25.03
2018-11-20T01:28:07.347Z,23.77
2018-11-20T01:30:53.990Z,23.27
2018-11-20T01:36:33.275Z,24.60
2018-11-20T01:39:24.724Z,25.87
2018-11-20T01:44:40.501Z,27.10
2018-11-20T01:49:39.232Z,25.50
2018-11-20T01:52:36.256Z,25.40
2018-11-20T01:55:22.661Z,24.60
2018-11-20T01:58:04.077Z,25.67
2018-11-20T02:00:59.594Z,27.60
2018-11-20T02:06:19.496Z,26.00
2018-11-20T02:08:49.236Z,28.20
2018-11-20T02:11:37.725Z,26.83
2018-11-20T02:14:34.616Z,27.10
2018-11-20T02:17:24.010Z,26.10
2018-11-20T02:20:19.334Z,26.40
2018-11-20T02:23:01.146Z,26.97
2018-11-20T02:28:01.291Z,28.63
2018-11-20T02:30:55.512Z,27.40
2018-11-20T02:36:44.207Z,25.97
2018-11-20T02:39:50.769Z,26.67
2018-11-20T02:45:10.831Z,24.57
2018-11-20T02:50:06.660Z,27.00
2018-11-20T02:52:57.846Z,27.57
2018-11-20T03:03:19.813Z,25.57
2018-11-20T03:10:52.026Z,25.20
2018-11-20T03:13:38.922Z,25.80
2018-11-20T03:16:39.213Z,25.37
2018-11-20T03:22:03.313Z,24.33
2018-11-20T03:24:30.731Z,23.93
2018-11-20T03:27:25.238Z,26.13
2018-11-20T03:30:58.528Z,25.90
2018-11-20T03:33:45.319Z,41.47
2018-11-20T03:36:42.307Z,21.90
2018-11-20T03:39:24.586Z,26.10
2018-11-20T03:44:23.145Z,25.20
2018-11-20T03:49:43.418Z,25.30
2018-11-20T03:54:39.731Z,24.77
2018-11-20T03:59:36.362Z,23.60
2018-11-20T04:05:04.094Z,25.50
2018-11-20T04:15:11.358Z,23.87
2018-11-20T04:17:59.345Z,26.67
2018-11-20T04:20:46.069Z,27.03
2018-11-20T04:23:23.800Z,23.30
2018-11-20T04:28:43.840Z,25.40
2018-11-20T04:34:12.105Z,23.07
2018-11-20T04:36:57.002Z,22.27
2018-11-20T04:40:41.775Z,23.87
2018-11-20T04:43:41.402Z,23.37
2018-11-20T04:46:27.599Z,22.57
2018-11-20T04:49:09.163Z,21.97
2018-11-20T04:51:59.629Z,22.53
2018-11-20T04:54:48.584Z,25.87
2018-11-20T04:57:51.134Z,24.33
2018-11-20T05:00:36.090Z,22.97
2018-11-20T05:03:28.224Z,23.37
2018-11-20T05:06:14.290Z,21.90
2018-11-20T05:09:13.947Z,21.60
2018-11-20T05:11:57.762Z,24.23
2018-11-20T05:14:46.334Z,23.40
2018-11-20T05:17:33.764Z,22.40
2018-11-20T05:20:19.170Z,23.33
2018-11-20T05:22:56.854Z,22.70
2018-11-20T05:25:47.116Z,25.43
2018-11-20T05:28:43.457Z,23.03
2018-11-20T05:31:41.984Z,23.30
2018-11-20T05:34:22.132Z,22.97
2018-11-20T05:37:21.594Z,22.97
2018-11-20T05:39:56.686Z,25.70
2018-11-20T05:42:42.927Z,21.90
2018-11-20T05:45:38.586Z,22.37
2018-11-20T05:48:44.195Z,23.53
2018-11-20T05:51:31.700Z,26.60
2018-11-20T05:54:19.448Z,24.47
2018-11-20T05:57:13.046Z,24.30
2018-11-20T05:59:59.740Z,25.43
2018-11-20T06:02:48.036Z,25.57
2018-11-20T06:05:43.862Z,24.93
2018-11-20T06:08:30.261Z,22.77
2018-11-20T06:11:17.745Z,27.10
2018-11-20T06:14:05.418Z,25.27
2018-11-20T06:17:08.211Z,23.80
2018-11-20T06:19:52.045Z,24.00
2018-11-20T06:22:31.948Z,25.97
2018-11-20T06:25:25.349Z,26.37
2018-11-20T06:28:21.638Z,29.43
2018-11-20T06:31:07.748Z,24.50
2018-11-20T06:34:24.963Z,22.47
2018-11-20T06:37:17.440Z,27.37
2018-11-20T06:40:04.072Z,24.40
2018-11-20T06:43:04.059Z,25.33
2018-11-20T06:46:01.151Z,24.97
2018-11-20T06:48:57.788Z,25.97
2018-11-20T06:51:48.685Z,22.93
2018-11-20T06:54:41.555Z,25.60
2018-11-20T06:57:32.058Z,27.33
2018-11-20T07:00:21.634Z,29.10
2018-11-20T07:03:05.905Z,27.60
2018-11-20T07:05:48.399Z,29.37
2018-11-20T07:08:39.286Z,26.63
2018-11-20T07:11:29.506Z,29.20
2018-11-20T07:14:14.187Z,28.23
2018-11-20T07:17:22.265Z,29.13
2018-11-20T07:20:09.865Z,28.77
2018-11-20T07:23:12.703Z,28.50
2018-11-20T07:25:50.857Z,30.03
2018-11-20T07:28:38.525Z,29.40
2018-11-20T07:31:25.718Z,27.00
2018-11-20T07:34:11.767Z,24.23
2018-11-20T07:36:57.653Z,29.80
2018-11-20T07:40:00.439Z,26.77
2018-11-20T07:42:46.827Z,28.20
2018-11-20T07:45:33.072Z,30.57
2018-11-20T07:48:29.975Z,30.90
2018-11-20T07:51:18.127Z,26.33
2018-11-20T07:54:14.152Z,30.70
2018-11-20T07:56:58.582Z,31.00
2018-11-20T07:59:56.197Z,31.67
2018-11-20T08:02:55.769Z,28.97
2018-11-20T08:05:42.839Z,30.53
2018-11-20T08:08:36.233Z,27.33
2018-11-20T08:11:23.675Z,31.47
2018-11-20T08:14:04.133Z,31.87
2018-11-20T08:16:39.985Z,30.90
2018-11-20T08:19:35.209Z,28.40
2018-11-20T08:22:21.236Z,30.30
2018-11-20T08:25:07.425Z,29.50
2018-11-20T08:27:57.698Z,29.50
2018-11-20T08:30:50.964Z,30.50
2018-11-20T08:33:37.992Z,28.50
2018-11-20T08:36:17.692Z,30.23
2018-11-20T08:39:01.356Z,30.37
2018-11-20T08:41:50.984Z,29.20
2018-11-20T08:44:37.129Z,33.90
2018-11-20T08:47:24.783Z,31.00
2018-11-20T08:50:18.320Z,30.33
2018-11-20T08:53:00.944Z,35.50
2018-11-20T08:55:51.807Z,28.93
2018-11-20T08:58:40.078Z,29.70
2018-11-20T09:01:46.816Z,32.67
2018-11-20T09:04:40.602Z,30.50
2018-11-20T09:07:30.998Z,32.50
2018-11-20T09:10:11.920Z,30.53
2018-11-20T09:13:02.214Z,29.97
2018-11-20T09:15:49.742Z,30.87
2018-11-20T09:18:41.380Z,29.40
2018-11-20T09:21:48.517Z,32.27
2018-11-20T09:24:36.605Z,28.10
2018-11-20T09:27:39.492Z,29.67
2018-11-20T09:30:29.854Z,30.03
2018-11-20T09:33:27.521Z,31.47
2018-11-20T09:36:13.964Z,30.37
2018-11-20T09:39:00.558Z,29.63
2018-11-20T09:41:48.187Z,28.80
2018-11-20T09:45:12.694Z,28.40
2018-11-20T09:48:03.065Z,29.50
2018-11-20T09:50:50.711Z,29.90
2018-11-20T09:53:51.954Z,27.97
2018-11-20T09:56:38.294Z,28.57
2018-11-20T09:59:39.868Z,26.50
2018-11-20T10:02:36.567Z,25.10
2018-11-20T10:05:39.414Z,27.77
2018-11-20T10:08:35.164Z,31.13
2018-11-20T10:11:22.645Z,25.73
2018-11-20T10:14:13.108Z,24.30
2018-11-20T10:17:03.791Z,27.10
2018-11-20T10:19:52.352Z,26.03
2018-11-20T10:22:40.781Z,27.07
2018-11-20T10:25:29.292Z,28.23
2018-11-20T10:28:27.336Z,26.00
2018-11-20T10:31:17.903Z,24.00
2018-11-20T10:34:03.882Z,26.37
2018-11-20T10:36:56.604Z,29.30
2018-11-20T10:39:56.098Z,26.93
2018-11-20T10:42:36.715Z,23.07
2018-11-20T10:45:27.776Z,25.20
2018-11-20T10:48:17.345Z,23.87
2018-11-20T10:51:03.777Z,26.80
2018-11-20T10:53:52.726Z,29.40
2018-11-20T10:56:43.298Z,24.33
2018-11-20T10:59:29.536Z,24.90
2018-11-20T11:02:15.417Z,25.80
2018-11-20T11:05:11.970Z,24.80
2018-11-20T11:08:30.074Z,22.50
2018-11-20T11:11:26.454Z,25.17
2018-11-20T11:14:19.870Z,25.73
2018-11-20T11:17:17.691Z,26.50
2018-11-20T11:20:03.978Z,27.00
2018-11-20T11:23:00.530Z,25.00
2018-11-20T11:25:46.609Z,23.53
2018-11-20T11:28:47.174Z,28.43
2018-11-20T11:31:50.062Z,25.53
2018-11-20T11:34:45.283Z,25.47
2018-11-20T11:37:32.912Z,24.90
2018-11-20T11:40:25.033Z,25.90
2018-11-20T11:43:12.699Z,29.50
2018-11-20T11:45:59.096Z,27.17
2018-11-20T11:48:45.271Z,31.23
2018-11-20T11:51:32.899Z,29.03
2018-11-20T11:54:12.370Z,27.80
2018-11-20T11:57:06.953Z,31.27
2018-11-20T12:00:02.066Z,29.30
2018-11-20T12:05:47.237Z,29.63
2018-11-20T12:08:39.104Z,30.40
2018-11-20T12:11:25.557Z,30.33
2018-11-20T12:14:23.909Z,32.67
2018-11-20T12:17:10.345Z,29.60
2018-11-20T12:20:03.903Z,30.57
2018-11-20T12:22:49.989Z,32.03
2018-11-20T12:25:36.644Z,28.93
2018-11-20T12:28:22.840Z,32.60
2018-11-20T12:31:09.415Z,30.53
2018-11-20T12:33:59.994Z,30.70
2018-11-20T12:36:45.362Z,34.70
2018-11-20T12:39:40.548Z,30.67
2018-11-20T12:42:30.263Z,35.67
2018-11-20T12:45:16.585Z,31.57
2018-11-20T12:47:57.658Z,33.07
2018-11-20T12:50:48.566Z,32.87
2018-11-20T12:53:42.974Z,32.50
2018-11-20T12:56:36.550Z,31.27
2018-11-20T12:59:34.240Z,34.30
2018-11-20T13:02:20.955Z,32.83
2018-11-20T13:05:15.539Z,32.70
2018-11-20T13:08:07.965Z,32.57
2018-11-20T13:11:10.726Z,32.27
2018-11-20T13:13:59.598Z,34.43
2018-11-20T13:16:43.939Z,33.53
2018-11-20T13:19:38.526Z,32.90
2018-11-20T13:22:31.172Z,35.50
2018-11-20T13:25:17.102Z,32.93
2018-11-20T13:28:13.684Z,33.80
2018-11-20T13:31:00.156Z,35.43
2018-11-20T13:33:45.710Z,33.63
2018-11-20T13:36:31.886Z,30.37
2018-11-20T13:39:11.840Z,32.53
2018-11-20T13:41:49.395Z,34.90
2018-11-20T13:44:35.765Z,36.07
2018-11-20T13:47:21.998Z,33.80
2018-11-20T13:50:20.918Z,31.03
2018-11-20T13:53:13.574Z,34.13
2018-11-20T13:56:01.256Z,35.63
2018-11-20T13:58:47.601Z,34.50
2018-11-20T14:01:33.899Z,35.10
2018-11-20T14:04:19.194Z,33.07
2018-11-20T14:07:21.894Z,36.13
2018-11-20T14:10:10.694Z,31.50
2018-11-20T14:12:57.926Z,34.90
2018-11-20T14:15:51.267Z,33.00
2018-11-20T14:18:37.781Z,35.33
2018-11-20T14:21:21.251Z,33.50
2018-11-20T14:24:08.379Z,33.67
2018-11-20T14:26:54.570Z,31.77
2018-11-20T14:29:38.531Z,34.38
2018-11-20T14:32:28.737Z,32.23
2018-11-20T14:35:16.429Z,33.17
2018-11-20T14:38:02.463Z,31.17
2018-11-20T14:40:53.141Z,31.90
2018-11-20T14:43:50.793Z,28.30
2018-11-20T14:46:45.187Z,28.47
2018-11-20T14:49:43.897Z,22.67
2018-11-20T14:52:30.375Z,26.80
2018-11-20T14:55:23.691Z,25.60
2018-11-20T14:58:30.325Z,22.37
2018-11-20T15:01:36.325Z,21.00
2018-11-20T15:04:26.798Z,22.37
2018-11-20T15:07:14.169Z,21.70
2018-11-20T15:10:15.652Z,20.10
2018-11-20T15:13:07.094Z,24.20
2018-11-20T15:16:09.617Z,23.57
2018-11-20T15:18:56.256Z,23.63
2018-11-20T15:21:47.829Z,20.47
2018-11-20T15:24:42.567Z,20.27
2018-11-20T15:27:43.180Z,19.43
2018-11-20T15:30:39.893Z,18.20
2018-11-20T15:33:36.391Z,18.90
2018-11-20T15:36:22.809Z,18.97
2018-11-20T15:39:22.126Z,19.17
2018-11-20T15:42:12.754Z,22.00
2018-11-20T15:45:02.701Z,20.63
2018-11-20T15:47:50.092Z,17.93
2018-11-20T15:50:29.844Z,20.60
2018-11-20T15:53:09.009Z,22.33
2018-11-20T15:55:59.231Z,19.57
2018-11-20T15:58:49.470Z,20.47
2018-11-20T16:01:43.971Z,20.27
2018-11-20T16:04:34.538Z,20.97
2018-11-20T16:07:26.072Z,19.53
2018-11-20T16:10:16.590Z,22.37
2018-11-20T16:13:06.327Z,21.40
2018-11-20T16:15:59.610Z,20.87
2018-11-20T16:18:38.594Z,23.87
2018-11-20T16:21:32.104Z,22.43
2018-11-20T16:24:12.996Z,24.83
2018-11-20T16:27:05.317Z,26.33
2018-11-20T16:29:53.144Z,23.00
2018-11-20T16:32:39.484Z,26.60
2018-11-20T16:35:40.622Z,28.77
2018-11-20T16:38:37.252Z,24.33
2018-11-20T16:41:32.138Z,27.30
2018-11-20T16:44:18.498Z,33.23
2018-11-20T16:47:06.243Z,27.47
2018-11-20T16:49:56.517Z,38.17
2018-11-20T16:52:55.179Z,33.10
2018-11-20T16:55:54.984Z,29.50
2018-11-20T16:58:43.080Z,26.40
2018-11-20T17:01:32.022Z,25.50
2018-11-20T17:04:43.355Z,28.30
2018-11-20T17:07:35.459Z,29.60
2018-11-20T17:10:29.020Z,35.27
2018-11-20T17:13:19.147Z,30.20
2018-11-20T17:16:00.376Z,32.87
2018-11-20T17:19:06.125Z,28.77
2018-11-20T17:22:11.874Z,31.50
2018-11-20T17:24:58.265Z,27.13
2018-11-20T17:27:44.900Z,28.80
2018-11-20T17:30:31.255Z,29.23
2018-11-20T17:33:23.123Z,29.50
2018-11-20T17:36:29.667Z,29.57
2018-11-20T17:39:29.217Z,31.50
2018-11-20T17:42:34.328Z,31.80
2018-11-20T17:45:45.238Z,30.37
2018-11-20T17:48:51.467Z,27.90
2018-11-20T17:51:40.116Z,31.13
2018-11-20T17:54:41.772Z,28.50
2018-11-20T17:57:31.797Z,28.10
2018-11-20T18:00:24.466Z,32.00
2018-11-20T18:03:10.809Z,28.90
2018-11-20T18:05:57.727Z,32.00
2018-11-20T18:08:54.182Z,30.20
2018-11-20T18:11:44.833Z,29.13
2018-11-20T18:14:41.191Z,30.07
2018-11-20T18:17:29.875Z,27.23
2018-11-20T18:20:13.472Z,29.03
2018-11-20T18:23:03.231Z,27.37
2018-11-20T18:25:49.483Z,29.63
2018-11-20T18:28:36.595Z,25.23
2018-11-20T18:31:13.069Z,25.97
2018-11-20T18:34:15.856Z,24.80
2018-11-20T18:37:12.278Z,23.27
2018-11-20T18:39:58.342Z,23.47
2018-11-20T18:42:46.052Z,24.63
2018-11-20T18:45:33.664Z,20.93
2018-11-20T18:48:15.845Z,24.63
2018-11-20T18:51:02.581Z,24.97
2018-11-20T18:53:49.936Z,24.47
2018-11-20T18:56:49.803Z,23.30
2018-11-20T18:59:36.278Z,23.10
2018-11-20T19:02:33.865Z,25.27
2018-11-20T19:05:50.260Z,25.67
2018-11-20T19:08:37.615Z,25.07
2018-11-20T19:11:40.810Z,27.83
2018-11-20T19:14:27.445Z,24.63
2018-11-20T19:17:09.637Z,25.57
2018-11-20T19:19:57.374Z,26.37
2018-11-20T19:22:44.856Z,26.07
2018-11-20T19:25:38.099Z,29.47
2018-11-20T19:28:34.748Z,39.87
2018-11-20T19:31:41.159Z,29.70
2018-11-20T19:34:21.143Z,24.13
2018-11-20T19:37:07.897Z,27.17
2018-11-20T19:40:00.525Z,24.43
2018-11-20T19:43:14.041Z,24.43
2018-11-20T19:46:01.178Z,23.90
2018-11-20T19:48:49.932Z,27.10
2018-11-20T19:51:35.922Z,30.00
2018-11-20T19:54:29.822Z,30.17
2018-11-20T19:57:16.862Z,23.77
2018-11-20T20:00:04.421Z,25.60
2018-11-20T20:02:52.116Z,25.17
2018-11-20T20:05:54.840Z,26.07
2018-11-20T20:08:56.655Z,24.27
2018-11-20T20:12:04.652Z,24.07
2018-11-20T20:14:51.258Z,24.10
2018-11-20T20:17:50.765Z,26.67
2018-11-20T20:20:37.900Z,24.40
2018-11-20T20:23:19.321Z,26.20
2018-11-20T20:26:25.392Z,25.43
2018-11-20T20:29:32.254Z,24.40
2018-11-20T20:32:26.909Z,27.50
2018-11-20T20:35:23.705Z,27.70
2018-11-20T20:38:10.004Z,26.10
2018-11-20T20:40:59.618Z,28.03
2018-11-20T20:44:02.418Z,30.10
2018-11-20T20:46:55.931Z,28.10
2018-11-20T20:49:42.968Z,28.00
2018-11-20T20:52:24.896Z,28.53
2018-11-20T20:55:14.445Z,28.20
2018-11-20T20:57:50.147Z,33.70
2018-11-20T21:00:36.610Z,29.13
2018-11-20T21:03:35.971Z,27.83
2018-11-20T21:06:16.485Z,30.83
2018-11-20T21:09:04.959Z,30.40
2018-11-20T21:11:52.646Z,31.67
2018-11-20T21:14:40.295Z,31.93
2018-11-20T21:17:43.051Z,31.50
2018-11-20T21:20:34.776Z,33.27
2018-11-20T21:23:31.385Z,34.00
2018-11-20T21:26:27.745Z,31.43
2018-11-20T21:29:19.212Z,35.07
2018-11-20T21:32:05.826Z,31.80
2018-11-20T21:34:55.288Z,34.37
2018-11-20T21:37:39.774Z,36.27
2018-11-20T21:40:28.216Z,35.80
2018-11-20T21:43:30.889Z,37.73
2018-11-20T21:46:18.562Z,35.73
2018-11-20T21:49:04.735Z,36.87
2018-11-20T21:52:03.173Z,37.00
2018-11-20T21:54:49.292Z,38.57
2018-11-20T21:57:45.829Z,39.23
2018-11-20T22:00:37.721Z,38.40
2018-11-20T22:03:29.099Z,38.23
2018-11-20T22:06:15.289Z,39.77
2018-11-20T22:09:03.652Z,39.90
2018-11-20T22:12:03.009Z,40.37
2018-11-20T22:14:59.517Z,41.77
2018-11-20T22:17:45.828Z,41.17
2018-11-20T22:20:32.922Z,43.47
2018-11-20T22:23:20.415Z,41.50
2018-11-20T22:25:56.316Z,43.53
2018-11-20T22:28:56.275Z,40.77
2018-11-20T22:31:56.038Z,40.63
2018-11-20T22:34:43.580Z,43.67
2018-11-20T22:37:29.584Z,40.53
2018-11-20T22:40:15.796Z,36.37
2018-11-20T22:43:13.617Z,38.30
2018-11-20T22:46:21.228Z,39.70
2018-11-20T22:49:11.039Z,39.07
2018-11-20T22:51:50.768Z,40.53
2018-11-20T22:54:38.503Z,44.00
2018-11-20T22:57:22.582Z,43.83
2018-11-20T23:00:08.961Z,43.03
2018-11-20T23:03:09.272Z,43.03
2018-11-20T23:05:59.617Z,44.67
2018-11-20T23:08:28.076Z,44.00
2018-11-20T23:11:05.016Z,49.17
2018-11-20T23:13:41.368Z,43.80
2018-11-20T23:16:09.879Z,46.67
2018-11-20T23:18:39.396Z,45.23
2018-11-20T23:21:07.924Z,45.70
2018-11-20T23:23:36.451Z,50.20
2018-11-20T23:26:05.123Z,49.63
2018-11-20T23:28:35.607Z,46.30
2018-11-20T23:31:06.607Z,43.30
2018-11-20T23:33:36.072Z,45.87
2018-11-20T23:36:06.015Z,42.30
2018-11-20T23:38:34.472Z,42.70
2018-11-20T23:41:03.080Z,45.40
2018-11-20T23:43:33.549Z,46.37
2018-11-20T23:46:02.088Z,46.57
2018-11-20T23:48:30.613Z,45.97
2018-11-20T23:50:59.112Z,45.93
2018-11-20T23:53:29.627Z,52.67
2018-11-20T23:55:58.157Z,47.67
2018-11-20T23:58:26.683Z,46.37
